Time;durP1;ratioP1;P1;durP2;ratioP2;P2;SDS_P1;SDS_P2;PMS_P1;PMS_P2;Temp;Humidity;BMP_temperature;BMP_pressure;BME280_temperature;BME280_humidity;BME280_pressure;Samples;Min_cycle;Max_cycle;Signal;HPM_P1;HPM_P2
2022/02/25 00:00:32;;;;;;;13.17;12.27;;;2.60;99.90;;;;;;5032460;28;20548;-68
2022/02/25 00:02:58;;;;;;;12.37;11.43;;;2.60;99.90;;;;;;5032330;28;20171;-67
2022/02/25 00:05:24;;;;;;;12.87;11.90;;;2.60;99.90;;;;;;5032342;28;20179;-67
2022/02/25 00:07:50;;;;;;;11.70;10.70;;;2.60;99.90;;;;;;5032270;28;20191;-67
2022/02/25 00:10:16;;;;;;;11.40;10.40;;;2.60;99.90;;;;;;5032431;28;20176;-67
2022/02/25 00:12:42;;;;;;;11.17;10.13;;;2.60;99.90;;;;;;5032318;28;20247;-67
2022/02/25 00:15:07;;;;;;;11.40;10.10;;;2.60;99.90;;;;;;5032215;28;20202;-67
2022/02/25 00:17:33;;;;;;;11.77;10.33;;;2.60;99.90;;;;;;5031965;28;20226;-67
2022/02/25 00:19:59;;;;;;;12.03;10.20;;;2.60;99.90;;;;;;5031712;28;20179;-67
2022/02/25 00:22:25;;;;;;;9.70;8.80;;;2.60;99.90;;;;;;5032133;28;20186;-67
2022/02/25 00:24:51;;;;;;;9.97;9.13;;;2.60;99.90;;;;;;5032623;28;20179;-68
2022/02/25 00:27:16;;;;;;;9.20;8.43;;;2.60;99.90;;;;;;5031795;28;20261;-68
2022/02/25 00:29:42;;;;;;;7.90;7.40;;;2.60;99.90;;;;;;5030646;28;20186;-67
2022/02/25 00:32:08;;;;;;;9.50;8.53;;;2.60;99.90;;;;;;5031920;28;20171;-67
2022/02/25 00:34:34;;;;;;;9.30;7.80;;;2.60;99.90;;;;;;5030581;28;20183;-68
2022/02/25 00:36:59;;;;;;;9.10;8.50;;;2.60;99.90;;;;;;5031729;28;20265;-68
2022/02/25 00:39:25;;;;;;;9.97;9.00;;;2.60;99.90;;;;;;5031632;28;20186;-67
2022/02/25 00:41:51;;;;;;;10.50;9.70;;;2.60;99.90;;;;;;5030423;28;20175;-68
2022/02/25 00:44:16;;;;;;;11.87;8.70;;;2.70;99.90;;;;;;5031308;28;20714;-67
2022/02/25 00:46:42;;;;;;;10.10;8.90;;;2.70;99.90;;;;;;5031687;28;20266;-67
2022/02/25 00:49:07;;;;;;;8.73;8.13;;;2.70;99.90;;;;;;5031679;28;20201;-67
2022/02/25 00:51:33;;;;;;;8.50;7.80;;;2.70;99.90;;;;;;5031825;28;20648;-67
2022/02/25 00:53:59;;;;;;;9.23;8.43;;;2.80;99.90;;;;;;5030828;28;20179;-67
2022/02/25 00:56:25;;;;;;;9.43;8.63;;;2.80;99.90;;;;;;5031430;28;20211;-66
2022/02/25 00:58:53;;;;;;;8.93;8.20;;;2.70;99.90;;;;;;5031542;28;20266;-69
2022/02/25 01:01:18;;;;;;;9.63;8.70;;;2.80;99.90;;;;;;5032021;28;20629;-68
2022/02/25 01:03:44;;;;;;;10.00;9.00;;;2.80;99.90;;;;;;5031342;28;20229;-68
2022/02/25 01:06:11;;;;;;;8.93;8.23;;;2.80;99.90;;;;;;5031197;28;20185;-67
2022/02/25 01:08:36;;;;;;;9.67;8.83;;;2.70;99.90;;;;;;5031358;28;20548;-67
2022/02/25 01:11:02;;;;;;;10.20;9.33;;;2.80;99.90;;;;;;5031423;28;20179;-67
2022/02/25 01:13:28;;;;;;;10.50;9.60;;;2.70;99.90;;;;;;5030749;28;20194;-66
2022/02/25 01:15:53;;;;;;;10.43;9.73;;;2.70;99.90;;;;;;5031187;28;20244;-67
2022/02/25 01:18:20;;;;;;;10.03;9.33;;;2.70;99.90;;;;;;5029763;28;20581;-67
2022/02/25 01:20:45;;;;;;;9.30;8.67;;;2.70;99.90;;;;;;5030006;28;20187;-68
2022/02/25 01:23:11;;;;;;;9.50;8.80;;;2.70;99.90;;;;;;5031076;28;20633;-68
2022/02/25 01:25:38;;;;;;;11.60;10.40;;;2.70;99.90;;;;;;5031485;28;20210;-68
2022/02/25 01:28:03;;;;;;;9.93;9.27;;;2.70;99.90;;;;;;5029466;28;20221;-67
2022/02/25 01:30:29;;;;;;;11.40;10.40;;;2.70;99.90;;;;;;5030742;28;20179;-68
2022/02/25 01:32:55;;;;;;;10.77;9.87;;;2.70;99.90;;;;;;5031069;28;20547;-67
2022/02/25 01:35:20;;;;;;;12.77;11.70;;;2.80;99.90;;;;;;5030167;28;20666;-67
2022/02/25 01:37:46;;;;;;;9.70;9.10;;;2.80;99.90;;;;;;5030785;28;20219;-68
2022/02/25 01:40:12;;;;;;;9.83;9.03;;;2.90;99.90;;;;;;5030901;28;20198;-68
2022/02/25 01:42:47;;;;;;;9.00;8.10;;;2.90;99.90;;;;;;5029777;28;20641;-68
2022/02/25 01:45:14;;;;;;;9.63;8.70;;;2.90;99.90;;;;;;5029485;28;20186;-68
2022/02/25 01:47:39;;;;;;;9.67;8.87;;;2.90;99.90;;;;;;5031262;28;20603;-68
2022/02/25 01:50:06;;;;;;;9.77;9.17;;;2.90;99.90;;;;;;5030776;28;20176;-68
2022/02/25 01:52:32;;;;;;;9.93;8.97;;;2.80;99.90;;;;;;5030761;28;20367;-68
2022/02/25 01:54:57;;;;;;;9.30;8.57;;;2.80;99.90;;;;;;5031540;28;20202;-67
2022/02/25 01:57:23;;;;;;;11.13;8.97;;;2.80;99.90;;;;;;5034279;28;20207;-69
2022/02/25 01:59:49;;;;;;;8.93;8.23;;;2.80;99.90;;;;;;5034368;28;20233;-68
2022/02/25 02:02:14;;;;;;;9.57;8.87;;;2.80;99.90;;;;;;5034289;28;20180;-67
2022/02/25 02:04:40;;;;;;;8.70;8.10;;;2.80;99.90;;;;;;5035105;28;20214;-67
2022/02/25 02:07:06;;;;;;;9.50;7.87;;;2.80;99.90;;;;;;5034323;28;20241;-67
2022/02/25 02:09:33;;;;;;;9.63;8.83;;;2.80;99.90;;;;;;5034820;28;20187;-69
2022/02/25 02:11:59;;;;;;;12.20;7.93;;;2.80;99.90;;;;;;5034070;28;20184;-68
2022/02/25 02:14:26;;;;;;;9.03;8.43;;;2.80;99.90;;;;;;5034571;28;20202;-68
2022/02/25 02:16:54;;;;;;;9.17;8.67;;;2.80;99.90;;;;;;5034592;28;20293;-68
2022/02/25 02:19:21;;;;;;;9.57;8.93;;;2.80;99.90;;;;;;5034563;28;20182;-68
2022/02/25 02:21:51;;;;;;;7.93;7.17;;;2.80;99.90;;;;;;5034249;28;20262;-67
2022/02/25 02:24:18;;;;;;;10.00;9.23;;;2.80;99.90;;;;;;5018394;28;20190;-69
2022/02/25 02:26:45;;;;;;;8.43;7.73;;;2.90;99.90;;;;;;5034367;28;20206;-68
2022/02/25 02:29:11;;;;;;;9.47;8.97;;;2.90;99.90;;;;;;5034052;28;20183;-68
2022/02/25 02:31:38;;;;;;;8.93;8.43;;;2.90;99.90;;;;;;5034221;28;20739;-68
2022/02/25 02:34:07;;;;;;;9.97;9.13;;;3.00;99.90;;;;;;5034269;28;20557;-68
2022/02/25 02:36:33;;;;;;;10.10;9.30;;;3.00;99.90;;;;;;5033670;28;20298;-66
2022/02/25 02:38:59;;;;;;;10.63;9.83;;;2.90;99.90;;;;;;5034262;28;20231;-68
2022/02/25 02:41:25;;;;;;;10.10;9.43;;;2.90;99.90;;;;;;5033676;28;20651;-67
2022/02/25 02:43:51;;;;;;;9.00;8.27;;;2.90;99.90;;;;;;5033800;28;20202;-68
2022/02/25 02:46:17;;;;;;;10.33;8.77;;;2.90;99.90;;;;;;5033366;28;20229;-66
2022/02/25 02:48:43;;;;;;;9.07;8.40;;;2.90;99.90;;;;;;5032564;28;20198;-67
2022/02/25 02:51:10;;;;;;;8.43;7.73;;;2.90;99.90;;;;;;5033889;28;20187;-66
2022/02/25 02:53:36;;;;;;;9.20;8.40;;;2.90;99.90;;;;;;5033474;28;20180;-67
2022/02/25 02:56:03;;;;;;;9.70;8.90;;;2.80;99.90;;;;;;5033623;28;20199;-67
2022/02/25 02:58:29;;;;;;;8.80;7.93;;;2.90;99.90;;;;;;5033701;28;20282;-67
2022/02/25 03:00:55;;;;;;;12.60;8.40;;;2.90;99.90;;;;;;5033822;28;20203;-67
2022/02/25 03:03:22;;;;;;;8.73;7.90;;;2.90;99.90;;;;;;5033005;28;20179;-67
2022/02/25 03:05:49;;;;;;;8.40;7.50;;;2.80;99.90;;;;;;5032267;28;20237;-66
2022/02/25 03:08:15;;;;;;;8.40;7.63;;;2.80;99.90;;;;;;5030883;28;20338;-66
2022/02/25 03:10:42;;;;;;;8.40;7.43;;;2.70;99.90;;;;;;5033668;28;20258;-67
2022/02/25 03:13:08;;;;;;;9.30;7.60;;;2.70;99.90;;;;;;5033034;28;20282;-68
2022/02/25 03:15:34;;;;;;;11.03;7.83;;;2.60;99.90;;;;;;5033179;28;20270;-67
2022/02/25 03:18:01;;;;;;;18.80;11.70;;;2.60;99.90;;;;;;5032953;28;20199;-66
2022/02/25 03:20:26;;;;;;;26.57;13.37;;;2.50;99.90;;;;;;5033291;28;20179;-67
2022/02/25 03:22:53;;;;;;;27.60;15.37;;;2.50;99.90;;;;;;5032397;28;20179;-68
2022/02/25 03:25:19;;;;;;;11.03;9.90;;;2.40;99.90;;;;;;5033178;28;20622;-67
2022/02/25 03:27:46;;;;;;;9.23;8.30;;;2.30;99.90;;;;;;5032530;28;20278;-67
2022/02/25 03:30:13;;;;;;;14.23;8.80;;;2.30;99.90;;;;;;5031052;28;20564;-67
2022/02/25 03:32:39;;;;;;;8.70;8.07;;;2.30;99.90;;;;;;5032735;28;20661;-66
2022/02/25 03:35:06;;;;;;;10.93;8.10;;;2.20;99.90;;;;;;5032353;28;20262;-67
2022/02/25 03:37:31;;;;;;;9.83;8.67;;;2.20;99.90;;;;;;5031450;28;20223;-67
2022/02/25 03:39:58;;;;;;;11.33;7.77;;;2.10;99.90;;;;;;5032535;28;20241;-66
2022/02/25 03:42:24;;;;;;;13.10;8.53;;;2.10;99.90;;;;;;5031463;28;20207;-67
2022/02/25 03:44:50;;;;;;;10.13;9.10;;;2.20;99.90;;;;;;5033028;28;20260;-67
2022/02/25 03:47:16;;;;;;;10.40;9.17;;;2.20;99.90;;;;;;5032774;28;20195;-66
2022/02/25 03:49:43;;;;;;;9.13;8.20;;;2.20;99.90;;;;;;5031228;28;20269;-66
2022/02/25 03:52:09;;;;;;;9.33;8.50;;;2.10;99.90;;;;;;5032335;28;20175;-67
2022/02/25 03:54:35;;;;;;;10.03;9.03;;;2.10;99.90;;;;;;5032679;28;20194;-67
2022/02/25 03:57:01;;;;;;;9.13;8.33;;;2.10;99.90;;;;;;5031168;28;20680;-66
2022/02/25 03:59:27;;;;;;;12.87;7.83;;;2.10;99.90;;;;;;5032418;28;20544;-66
2022/02/25 04:01:52;;;;;;;8.37;7.30;;;2.00;99.90;;;;;;5032602;28;20172;-67
2022/02/25 04:04:23;;;;;;;8.63;7.90;;;2.00;99.90;;;;;;5031743;28;20261;-66
2022/02/25 04:06:49;;;;;;;8.03;7.33;;;2.00;99.90;;;;;;5033177;28;20202;-67
2022/02/25 04:09:18;;;;;;;15.37;9.33;;;2.00;99.90;;;;;;5032241;28;20219;-66
2022/02/25 04:11:48;;;;;;;9.97;8.97;;;2.00;99.90;;;;;;5032566;28;20187;-67
2022/02/25 04:14:14;;;;;;;9.60;8.00;;;2.00;99.90;;;;;;5031654;28;20218;-68
2022/02/25 04:16:41;;;;;;;8.97;8.17;;;2.00;99.90;;;;;;5032231;28;20203;-67
2022/02/25 04:19:08;;;;;;;11.07;8.73;;;2.00;99.90;;;;;;5031740;28;20722;-66
2022/02/25 04:21:33;;;;;;;9.33;7.97;;;1.90;99.90;;;;;;5032341;28;20537;-67
2022/02/25 04:23:59;;;;;;;8.43;7.93;;;1.90;99.90;;;;;;5031504;28;20188;-66
2022/02/25 04:26:25;;;;;;;9.40;8.50;;;1.80;99.90;;;;;;5031996;28;20203;-66
2022/02/25 04:28:50;;;;;;;8.03;7.40;;;1.80;99.90;;;;;;5031178;28;20191;-69
2022/02/25 04:31:17;;;;;;;9.33;7.70;;;1.80;99.90;;;;;;5032106;28;20184;-67
2022/02/25 04:33:42;;;;;;;9.17;8.37;;;1.80;99.90;;;;;;5031369;28;20184;-67
2022/02/25 04:36:08;;;;;;;9.50;8.23;;;1.80;99.90;;;;;;5031651;28;20195;-66
2022/02/25 04:38:34;;;;;;;11.80;8.00;;;1.80;99.90;;;;;;5031818;28;20183;-67
2022/02/25 04:41:01;;;;;;;14.13;8.03;;;1.80;99.90;;;;;;5030529;28;20186;-67
2022/02/25 04:43:30;;;;;;;9.20;8.57;;;1.80;99.90;;;;;;5031391;28;20175;-66
2022/02/25 04:45:56;;;;;;;8.47;7.73;;;1.80;99.90;;;;;;5031754;28;20183;-67
2022/02/25 04:48:23;;;;;;;11.03;7.43;;;1.80;99.90;;;;;;5031727;28;20567;-67
2022/02/25 04:50:49;;;;;;;13.10;8.90;;;1.90;99.90;;;;;;5031230;28;20188;-67
2022/02/25 04:53:15;;;;;;;8.37;7.63;;;1.90;99.90;;;;;;5031420;28;20266;-67
2022/02/25 04:55:41;;;;;;;12.13;8.33;;;1.80;99.90;;;;;;5031374;28;20652;-66
2022/02/25 04:58:07;;;;;;;8.10;7.50;;;1.80;99.90;;;;;;5031425;28;20215;-66
2022/02/25 05:00:33;;;;;;;9.67;7.80;;;1.80;99.90;;;;;;5030105;28;20176;-67
2022/02/25 05:02:58;;;;;;;9.90;8.40;;;1.80;99.90;;;;;;5031248;28;20175;-66
2022/02/25 05:05:24;;;;;;;8.47;7.87;;;1.80;99.90;;;;;;5031290;28;20187;-67
2022/02/25 05:07:50;;;;;;;8.23;7.63;;;1.80;99.90;;;;;;5031719;28;20692;-66
2022/02/25 05:10:15;;;;;;;9.03;8.13;;;1.80;99.90;;;;;;5031189;28;20195;-68
2022/02/25 05:12:42;;;;;;;8.70;8.10;;;1.80;99.90;;;;;;5031452;28;20183;-66
2022/02/25 05:20:36;;;;;;;13.63;8.37;;;1.80;99.90;;;;;;5031511;28;20190;-66
2022/02/25 05:23:03;;;;;;;10.33;7.77;;;1.80;99.90;;;;;;5031135;28;20540;-67
2022/02/25 05:25:31;;;;;;;9.53;8.47;;;1.80;99.90;;;;;;5029870;28;20619;-67
2022/02/25 05:27:58;;;;;;;9.50;7.70;;;1.80;99.90;;;;;;5031203;28;20191;-67
2022/02/25 05:30:25;;;;;;;8.70;7.80;;;1.90;99.90;;;;;;5032266;28;20183;-66
2022/02/25 05:32:51;;;;;;;8.53;7.47;;;1.90;99.90;;;;;;5034930;28;20238;-67
2022/02/25 05:35:18;;;;;;;14.30;8.67;;;1.90;99.90;;;;;;5035332;28;20174;-66
2022/02/25 05:37:45;;;;;;;10.77;8.63;;;2.00;99.90;;;;;;5034939;28;20360;-66
2022/02/25 05:40:12;;;;;;;10.97;9.60;;;2.00;99.90;;;;;;5035091;28;20179;-67
2022/02/25 05:42:39;;;;;;;8.93;8.10;;;2.00;99.90;;;;;;5034980;28;20258;-67
2022/02/25 05:45:06;;;;;;;12.63;8.27;;;2.00;99.90;;;;;;5034966;28;20179;-66
2022/02/25 05:47:32;;;;;;;8.50;7.77;;;1.90;99.90;;;;;;5035230;28;20199;-67
2022/02/25 05:49:58;;;;;;;9.93;7.87;;;1.90;99.90;;;;;;5034940;28;20255;-66
2022/02/25 05:52:24;;;;;;;9.57;7.40;;;1.90;99.90;;;;;;5034931;28;20211;-67
2022/02/25 05:54:50;;;;;;;8.27;7.57;;;1.90;99.90;;;;;;5034980;28;20226;-67
2022/02/25 05:57:16;;;;;;;8.97;7.43;;;1.90;99.90;;;;;;5034691;28;20241;-67
2022/02/25 05:59:43;;;;;;;11.67;7.60;;;1.90;99.90;;;;;;5035098;28;20172;-67
2022/02/25 06:02:09;;;;;;;10.37;7.67;;;1.90;99.90;;;;;;5033826;28;20629;-66
2022/02/25 06:04:35;;;;;;;8.07;7.30;;;1.90;99.90;;;;;;5034924;28;20171;-68
2022/02/25 06:07:00;;;;;;;8.43;7.60;;;1.90;99.90;;;;;;5034637;28;20252;-66
2022/02/25 06:09:26;;;;;;;10.27;7.77;;;2.00;99.90;;;;;;5035197;28;20286;-66
2022/02/25 06:11:52;;;;;;;10.20;7.73;;;2.10;99.90;;;;;;5050022;28;20191;-67
2022/02/25 06:14:17;;;;;;;9.80;7.80;;;2.10;99.90;;;;;;5034481;28;20617;-67
2022/02/25 06:16:43;;;;;;;11.63;8.50;;;2.20;99.90;;;;;;5033842;28;20225;-68
2022/02/25 06:19:09;;;;;;;9.60;8.13;;;2.30;99.90;;;;;;5035162;28;20187;-67
2022/02/25 06:21:35;;;;;;;11.87;8.60;;;2.40;99.90;;;;;;5034877;28;20251;-66
2022/02/25 06:24:02;;;;;;;9.30;8.50;;;2.40;99.90;;;;;;5034156;28;20178;-66
2022/02/25 06:26:28;;;;;;;12.33;9.20;;;2.40;99.90;;;;;;5034496;28;20226;-68
2022/02/25 06:28:54;;;;;;;13.33;8.87;;;2.50;99.90;;;;;;5034058;28;20598;-67
2022/02/25 06:31:20;;;;;;;9.10;8.37;;;2.50;99.90;;;;;;5034392;28;20537;-67
2022/02/25 06:33:46;;;;;;;9.93;8.10;;;2.60;99.90;;;;;;5032640;28;20183;-67
2022/02/25 06:36:11;;;;;;;12.20;8.43;;;2.60;99.90;;;;;;5034028;28;20199;-66
2022/02/25 06:38:37;;;;;;;11.87;9.17;;;2.70;99.90;;;;;;5034180;28;20254;-66
2022/02/25 06:41:03;;;;;;;18.43;8.60;;;2.70;99.90;;;;;;5034023;28;20248;-66
2022/02/25 06:43:29;;;;;;;9.43;8.33;;;2.80;99.90;;;;;;5033659;28;20180;-66
2022/02/25 06:45:55;;;;;;;8.23;7.60;;;2.90;99.90;;;;;;5033824;28;20179;-65
2022/02/25 06:48:21;;;;;;;11.47;10.40;;;2.90;99.90;;;;;;5032366;28;20199;-66
2022/02/25 06:50:47;;;;;;;10.40;9.33;;;2.90;99.90;;;;;;5034431;28;20194;-65
2022/02/25 06:53:13;;;;;;;16.40;9.70;;;3.00;99.90;;;;;;5032083;28;20171;-65
2022/02/25 06:55:39;;;;;;;9.77;8.20;;;3.00;99.90;;;;;;5033312;28;20186;-65
2022/02/25 06:58:06;;;;;;;9.67;8.53;;;3.10;99.90;;;;;;5033570;28;20191;-66
2022/02/25 07:00:33;;;;;;;12.77;7.73;;;3.10;99.90;;;;;;5034118;28;20540;-65
2022/02/25 07:02:59;;;;;;;8.43;7.47;;;3.20;99.90;;;;;;5013876;28;20251;-66
2022/02/25 07:05:25;;;;;;;11.20;8.07;;;3.30;99.90;;;;;;5023934;28;20262;-66
2022/02/25 07:07:51;;;;;;;10.37;7.73;;;3.30;99.90;;;;;;5033183;28;20200;-66
2022/02/25 07:10:17;;;;;;;13.30;9.60;;;3.40;99.90;;;;;;5033314;28;20184;-65
2022/02/25 07:12:43;;;;;;;12.23;8.37;;;3.40;99.90;;;;;;5031910;28;20321;-66
2022/02/25 07:15:09;;;;;;;9.40;7.67;;;3.50;99.90;;;;;;5032012;28;20199;-66
2022/02/25 07:17:36;;;;;;;13.77;8.57;;;3.60;99.90;;;;;;5032866;28;20703;-66
2022/02/25 07:20:03;;;;;;;8.57;7.70;;;3.60;99.90;;;;;;5032936;28;20187;-66
2022/02/25 07:22:29;;;;;;;10.00;7.60;;;3.60;99.90;;;;;;5032687;28;20174;-66
2022/02/25 07:24:55;;;;;;;9.70;7.90;;;3.70;99.90;;;;;;5033246;28;20258;-66
2022/02/25 07:27:21;;;;;;;8.20;7.60;;;3.70;99.90;;;;;;5031428;28;20226;-66
2022/02/25 07:29:47;;;;;;;9.50;8.73;;;3.70;99.90;;;;;;5031804;28;20190;-66
2022/02/25 07:32:12;;;;;;;8.67;7.87;;;3.80;99.90;;;;;;5032069;28;20180;-65
2022/02/25 07:34:39;;;;;;;15.83;7.90;;;3.90;99.90;;;;;;5033150;28;20168;-66
2022/02/25 07:37:05;;;;;;;8.57;7.50;;;3.90;99.90;;;;;;5029323;28;20208;-66
2022/02/25 07:39:31;;;;;;;8.47;7.67;;;4.00;99.90;;;;;;5026880;28;20270;-67
2022/02/25 07:41:56;;;;;;;12.97;8.80;;;4.10;99.90;;;;;;5027738;28;20422;-66
2022/02/25 07:44:22;;;;;;;13.80;8.87;;;4.20;99.90;;;;;;5027658;28;20179;-65
2022/02/25 07:46:48;;;;;;;12.83;8.17;;;4.20;99.90;;;;;;5031248;28;20203;-67
2022/02/25 07:49:14;;;;;;;7.83;7.23;;;4.30;99.90;;;;;;5032221;28;20221;-67
2022/02/25 07:51:39;;;;;;;11.27;7.83;;;4.40;99.90;;;;;;5032989;28;20188;-66
2022/02/25 07:54:05;;;;;;;8.77;7.47;;;4.40;99.90;;;;;;5031394;28;20184;-67
2022/02/25 07:56:31;;;;;;;8.87;7.20;;;4.40;99.90;;;;;;5048042;28;20226;-67
2022/02/25 07:58:57;;;;;;;7.43;7.00;;;4.50;99.90;;;;;;5031764;28;20172;-66
2022/02/25 08:01:23;;;;;;;10.63;7.07;;;4.50;99.90;;;;;;5031239;28;20723;-67
2022/02/25 08:03:49;;;;;;;16.30;8.17;;;4.50;99.90;;;;;;5032285;28;20185;-66
2022/02/25 08:06:14;;;;;;;17.60;8.47;;;4.60;99.90;;;;;;5032028;28;20176;-66
2022/02/25 08:08:40;;;;;;;9.17;8.10;;;4.60;99.90;;;;;;5031373;28;20681;-66
2022/02/25 08:11:06;;;;;;;8.17;7.60;;;4.70;99.90;;;;;;5031821;28;20187;-65
2022/02/25 08:13:32;;;;;;;9.00;7.20;;;4.70;99.90;;;;;;5032182;28;20180;-66
2022/02/25 08:15:58;;;;;;;7.97;7.33;;;4.80;99.90;;;;;;5031982;28;20196;-66
2022/02/25 08:18:24;;;;;;;12.53;7.67;;;4.80;99.90;;;;;;5031921;28;20253;-66
2022/02/25 08:20:50;;;;;;;9.50;7.87;;;4.80;99.90;;;;;;5032215;28;20262;-67
2022/02/25 08:23:16;;;;;;;8.13;7.33;;;4.80;99.90;;;;;;5031465;28;20329;-66
2022/02/25 08:25:42;;;;;;;8.53;7.63;;;4.90;99.90;;;;;;5032309;28;20171;-66
2022/02/25 08:28:10;;;;;;;10.80;8.30;;;4.90;99.90;;;;;;5031437;28;20199;-66
2022/02/25 08:30:38;;;;;;;7.73;7.13;;;4.90;99.90;;;;;;5031528;28;20176;-67
2022/02/25 08:33:04;;;;;;;8.73;7.30;;;5.00;99.90;;;;;;5031074;28;20380;-66
2022/02/25 08:35:32;;;;;;;9.93;8.10;;;5.00;99.90;;;;;;5032063;28;20251;-66
2022/02/25 08:37:59;;;;;;;10.87;8.83;;;4.90;99.90;;;;;;5043098;22;20294;-67
2022/02/25 08:40:26;;;;;;;8.07;7.27;;;4.90;99.90;;;;;;5010938;28;20268;-67
2022/02/25 08:42:51;;;;;;;9.97;8.93;;;4.90;99.90;;;;;;5011648;28;20557;-67
2022/02/25 08:45:17;;;;;;;8.33;7.47;;;4.60;99.90;;;;;;5011662;28;20187;-67
2022/02/25 08:47:44;;;;;;;11.17;7.30;;;4.50;99.90;;;;;;5011774;28;20307;-67
2022/02/25 08:50:14;;;;;;;8.87;8.07;;;4.40;99.90;;;;;;5011527;28;20172;-66
2022/02/25 08:52:47;;;;;;;12.43;8.87;;;4.40;99.90;;;;;;5011217;28;20231;-66
2022/02/25 08:55:13;;;;;;;9.20;8.17;;;4.50;99.90;;;;;;5011627;28;20543;-68
2022/02/25 08:57:39;;;;;;;12.30;7.63;;;4.40;99.90;;;;;;5011866;28;20214;-67
2022/02/25 09:00:14;;;;;;;8.83;7.30;;;4.50;99.90;;;;;;5011263;28;20300;-67
2022/02/25 09:02:41;;;;;;;8.33;7.70;;;4.50;99.90;;;;;;5011413;28;20175;-66
2022/02/25 09:05:07;;;;;;;8.43;7.50;;;4.60;99.90;;;;;;5011240;28;20314;-66
2022/02/25 09:07:33;;;;;;;13.93;8.73;;;4.60;99.90;;;;;;5011653;28;20203;-66
2022/02/25 09:09:59;;;;;;;9.77;7.57;;;4.70;99.90;;;;;;5011460;28;20263;-68
2022/02/25 09:12:25;;;;;;;11.47;7.83;;;4.80;99.90;;;;;;5011374;28;20266;-68
2022/02/25 09:14:51;;;;;;;11.03;8.43;;;4.80;99.90;;;;;;5011811;28;20208;-67
2022/02/25 09:17:17;;;;;;;9.27;8.10;;;4.90;99.90;;;;;;5011095;28;20216;-68
2022/02/25 09:19:43;;;;;;;12.00;7.70;;;5.00;99.90;;;;;;5011508;28;20588;-67
2022/02/25 09:22:09;;;;;;;9.20;8.23;;;5.20;99.90;;;;;;5010893;28;20165;-67
2022/02/25 09:24:35;;;;;;;9.93;7.80;;;5.20;99.90;;;;;;5011497;28;20222;-67
2022/02/25 09:27:01;;;;;;;11.07;8.40;;;5.30;99.90;;;;;;5010015;28;20250;-67
2022/02/25 09:29:26;;;;;;;10.73;8.57;;;5.40;99.90;;;;;;5010429;28;20541;-67
2022/02/25 09:31:52;;;;;;;7.70;7.20;;;5.50;99.90;;;;;;5011503;28;20223;-67
2022/02/25 09:34:18;;;;;;;14.90;8.20;;;5.50;99.90;;;;;;5010965;28;20180;-68
2022/02/25 09:36:45;;;;;;;12.90;8.60;;;5.50;99.90;;;;;;5010091;28;20219;-68
2022/02/25 09:39:11;;;;;;;9.73;8.23;;;5.50;99.90;;;;;;5011227;28;20176;-67
2022/02/25 09:41:38;;;;;;;14.27;9.40;;;5.60;99.90;;;;;;5011519;28;20390;-67
2022/02/25 09:44:05;;;;;;;14.93;8.17;;;5.60;99.90;;;;;;5010426;28;20585;-67
2022/02/25 09:46:31;;;;;;;8.10;7.40;;;5.70;99.90;;;;;;5011374;28;20199;-67
2022/02/25 09:48:57;;;;;;;10.93;7.73;;;5.70;99.90;;;;;;5009870;28;20270;-67
2022/02/25 09:51:23;;;;;;;10.00;8.13;;;5.80;99.90;;;;;;5011295;28;20284;-67
2022/02/25 09:53:49;;;;;;;8.30;7.53;;;5.80;99.90;;;;;;5010743;28;20184;-67
2022/02/25 09:56:15;;;;;;;9.00;8.20;;;6.00;99.90;;;;;;5009602;28;20234;-67
2022/02/25 09:58:40;;;;;;;8.17;7.37;;;6.00;99.90;;;;;;5010309;28;20198;-67
2022/02/25 10:01:06;;;;;;;13.00;7.83;;;6.10;99.90;;;;;;5010278;28;20538;-67
2022/02/25 10:03:35;;;;;;;9.13;8.23;;;6.10;99.90;;;;;;5009580;28;20194;-67
2022/02/25 10:06:05;;;;;;;15.37;10.37;;;6.10;99.90;;;;;;5010954;28;20263;-67
2022/02/25 10:08:30;;;;;;;16.43;7.37;;;6.20;99.90;;;;;;5011062;28;20212;-68
2022/02/25 10:10:59;;;;;;;14.57;8.33;;;6.30;99.90;;;;;;5010903;28;20763;-68
2022/02/25 10:13:28;;;;;;;21.30;12.33;;;6.50;99.90;;;;;;5010648;28;20184;-67
2022/02/25 10:15:57;;;;;;;17.23;11.70;;;6.60;99.90;;;;;;5010817;28;20168;-68
2022/02/25 10:18:27;;;;;;;22.53;12.87;;;6.70;99.90;;;;;;5012587;28;20200;-67
2022/02/25 10:21:09;;;;;;;14.73;13.10;;;6.80;99.90;;;;;;5014797;28;20169;-69
2022/02/25 10:23:39;;;;;;;20.03;11.93;;;6.80;99.90;;;;;;5013225;28;20172;-67
2022/02/25 10:26:15;;;;;;;10.27;8.30;;;6.80;99.90;;;;;;5014474;28;20168;-67
2022/02/25 10:28:43;;;;;;;15.33;9.87;;;7.20;99.90;;;;;;5014555;28;20196;-67
2022/02/25 10:31:42;;;;;;;13.77;10.20;;;7.90;99.90;;;;;;5014449;28;20168;-67
2022/02/25 10:34:11;;;;;;;21.43;13.20;;;8.70;99.90;;;;;;5001764;28;20195;-67
2022/02/25 10:36:46;;;;;;;10.83;7.13;;;9.10;99.90;;;;;;5014225;28;20239;-67
2022/02/25 10:39:31;;;;;;;8.90;7.90;;;9.50;99.90;;;;;;5014357;28;20230;-67
2022/02/25 10:42:17;;;;;;;7.07;6.47;;;9.30;99.90;;;;;;5014209;28;20551;-67
2022/02/25 10:44:49;;;;;;;7.93;7.30;;;9.40;99.90;;;;;;5014374;28;20172;-67
2022/02/25 10:47:29;;;;;;;9.10;7.03;;;9.10;99.90;;;;;;5014125;28;20202;-68
2022/02/25 10:50:09;;;;;;;7.93;7.13;;;8.60;99.90;;;;;;5014413;28;20184;-66
2022/02/25 10:52:37;;;;;;;10.60;6.83;;;8.50;99.90;;;;;;5012681;28;20526;-67
2022/02/25 10:55:10;;;;;;;12.20;7.10;;;8.50;99.90;;;;;;5014138;28;20692;-67
2022/02/25 10:57:36;;;;;;;14.50;7.83;;;8.10;99.90;;;;;;5014051;28;20235;-67
2022/02/25 11:00:07;;;;;;;13.10;7.70;;;7.70;99.90;;;;;;5013972;28;20262;-67
2022/02/25 11:02:36;;;;;;;14.67;7.90;;;7.70;99.90;;;;;;5013764;28;20173;-67
2022/02/25 11:05:10;;;;;;;11.57;7.37;;;7.70;99.90;;;;;;5013843;28;20171;-67
2022/02/25 11:07:38;;;;;;;13.87;8.20;;;7.70;99.90;;;;;;5012735;28;20195;-67
2022/02/25 11:10:06;;;;;;;8.97;8.07;;;7.70;99.90;;;;;;5002721;28;20185;-67
2022/02/25 11:12:35;;;;;;;6.97;6.37;;;8.00;99.90;;;;;;4994003;28;20291;-67
2022/02/25 11:15:02;;;;;;;11.20;8.67;;;8.20;99.90;;;;;;5003156;28;20191;-67
2022/02/25 11:17:28;;;;;;;8.53;7.40;;;8.30;99.90;;;;;;5013527;28;20214;-67
2022/02/25 11:19:58;;;;;;;8.97;7.47;;;8.30;99.90;;;;;;5013255;28;20192;-67
2022/02/25 11:22:25;;;;;;;10.33;7.70;;;8.20;99.90;;;;;;5013094;28;20650;-67
2022/02/25 11:24:52;;;;;;;8.63;7.70;;;8.00;99.90;;;;;;5012781;28;20180;-67
2022/02/25 11:27:19;;;;;;;11.13;8.17;;;8.20;99.90;;;;;;5012735;28;20208;-67
2022/02/25 11:29:51;;;;;;;10.50;8.23;;;8.30;99.90;;;;;;5012838;28;20180;-67
2022/02/25 11:32:21;;;;;;;13.83;8.53;;;8.20;99.90;;;;;;5013162;28;20192;-67
2022/02/25 11:34:47;;;;;;;11.67;7.80;;;8.10;99.90;;;;;;5013149;28;20195;-67
2022/02/25 11:37:13;;;;;;;14.33;8.30;;;8.10;99.90;;;;;;5012583;28;20220;-67
2022/02/25 11:39:44;;;;;;;12.70;8.27;;;7.90;99.90;;;;;;5013151;28;20203;-67
2022/02/25 11:42:10;;;;;;;9.80;8.47;;;7.70;99.90;;;;;;5013093;28;20196;-67
2022/02/25 11:44:36;;;;;;;9.10;7.80;;;7.60;99.90;;;;;;5011530;28;20194;-67
2022/02/25 11:47:03;;;;;;;8.30;7.40;;;7.70;99.90;;;;;;5013058;28;20200;-67
2022/02/25 11:49:30;;;;;;;15.80;7.43;;;7.70;99.90;;;;;;5013137;28;20443;-67
2022/02/25 11:52:00;;;;;;;12.30;8.00;;;7.70;99.90;;;;;;5012705;28;20176;-67
2022/02/25 11:54:36;;;;;;;19.80;8.10;;;7.80;99.90;;;;;;5012383;28;20188;-67
2022/02/25 11:57:03;;;;;;;10.47;6.80;;;8.30;99.90;;;;;;5012590;28;20719;-67
2022/02/25 11:59:32;;;;;;;11.83;7.07;;;8.80;99.90;;;;;;5012424;28;20172;-67
2022/02/25 12:02:22;;;;;;;14.63;7.33;;;9.20;99.90;;;;;;5012632;28;20624;-66
2022/02/25 12:04:54;;;;;;;9.37;6.67;;;9.50;99.90;;;;;;5012533;28;20180;-66
2022/02/25 12:07:29;;;;;;;11.03;6.73;;;9.50;99.90;;;;;;5012452;28;20226;-66
2022/02/25 12:09:56;;;;;;;8.23;6.90;;;8.90;99.90;;;;;;5011134;28;20641;-67
2022/02/25 12:12:26;;;;;;;14.53;7.50;;;8.60;99.90;;;;;;5012232;28;20207;-67
2022/02/25 12:15:17;;;;;;;10.67;6.67;;;8.40;99.90;;;;;;5011127;28;20180;-67
2022/02/25 12:17:55;;;;;;;8.63;7.17;;;8.80;99.90;;;;;;5012329;28;20234;-67
2022/02/25 12:20:33;;;;;;;7.60;7.07;;;9.30;99.90;;;;;;4992708;28;20638;-67
2022/02/25 12:23:18;;;;;;;12.77;7.17;;;9.50;99.90;;;;;;4994102;28;20658;-66
2022/02/25 12:25:45;;;;;;;10.57;7.07;;;9.40;99.90;;;;;;5012381;28;20168;-66
2022/02/25 12:28:28;;;;;;;11.30;7.40;;;9.60;99.90;;;;;;5011806;28;20199;-66
2022/02/25 12:31:00;;;;;;;15.13;9.40;;;9.70;99.90;;;;;;5011271;28;20180;-66
2022/02/25 12:33:34;;;;;;;11.60;8.87;;;9.60;99.90;;;;;;5012061;28;20645;-67
2022/02/25 12:36:03;;;;;;;16.87;11.00;;;9.20;99.90;;;;;;5012045;28;20182;-67
2022/02/25 12:38:30;;;;;;;15.70;9.23;;;8.70;99.90;;;;;;5011388;28;20677;-66
2022/02/25 12:41:10;;;;;;;17.40;10.97;;;8.20;99.90;;;;;;5011999;28;20311;-66
2022/02/25 12:43:58;;;;;;;14.73;9.37;;;7.70;99.90;;;;;;5011481;28;20180;-66
2022/02/25 12:46:26;;;;;;;12.50;9.13;;;7.40;99.90;;;;;;5011723;28;20172;-66
2022/02/25 12:48:53;;;;;;;14.00;10.53;;;7.10;99.90;;;;;;5011648;28;20214;-66
2022/02/25 12:51:20;;;;;;;14.57;10.80;;;6.70;99.90;;;;;;5011772;28;20215;-66
2022/02/25 12:53:59;;;;;;;10.80;8.77;;;6.40;99.90;;;;;;5011498;28;20653;-67
2022/02/25 12:56:34;;;;;;;9.37;8.37;;;6.20;99.90;;;;;;5011584;28;20637;-67